Time;durP1;ratioP1;P1;durP2;ratioP2;P2;SDS_P1;SDS_P2;PMS_P1;PMS_P2;Temp;Humidity;BMP_temperature;BMP_pressure;BME280_temperature;BME280_humidity;BME280_pressure;Samples;Min_cycle;Max_cycle;Signal;HPM_P1;HPM_P2
2022/02/23 00:00:27;;;;;;;2.30;1.17;;;7.00;99.90;;;;;;4953504;29;20257;-68
2022/02/23 00:02:53;;;;;;;1.73;1.20;;;6.90;99.90;;;;;;4953280;28;20201;-68
2022/02/23 00:05:18;;;;;;;2.70;1.37;;;6.90;99.90;;;;;;4953975;29;20281;-68
2022/02/23 00:07:44;;;;;;;3.07;1.13;;;6.90;99.90;;;;;;4953842;29;20174;-68
2022/02/23 00:10:10;;;;;;;3.90;1.97;;;6.90;99.90;;;;;;4953367;29;20201;-67
2022/02/23 00:12:36;;;;;;;2.90;1.60;;;6.90;99.90;;;;;;4953523;28;20499;-67
2022/02/23 00:15:01;;;;;;;3.77;2.10;;;6.90;99.90;;;;;;4953522;29;20170;-67
2022/02/23 00:17:27;;;;;;;4.40;1.20;;;7.00;99.90;;;;;;4953385;28;20175;-67
2022/02/23 00:19:53;;;;;;;3.03;2.00;;;6.90;99.90;;;;;;4953440;29;20555;-67
2022/02/23 00:22:19;;;;;;;1.27;1.17;;;6.90;99.90;;;;;;4953546;28;20202;-68
2022/02/23 00:24:45;;;;;;;0.90;0.90;;;6.80;99.90;;;;;;4953432;29;20983;-68
2022/02/23 00:27:10;;;;;;;4.73;1.20;;;6.70;99.90;;;;;;4953647;29;20174;-68
2022/02/23 00:29:36;;;;;;;1.60;0.87;;;6.70;99.90;;;;;;4953314;29;20538;-68
2022/02/23 00:32:02;;;;;;;3.13;1.50;;;6.70;99.90;;;;;;4953366;29;20170;-68
2022/02/23 00:34:28;;;;;;;1.20;1.10;;;6.60;99.90;;;;;;5024770;23;20626;-73
2022/02/23 00:36:54;;;;;;;6.00;1.60;;;6.60;99.90;;;;;;5013721;28;20439;-74
2022/02/23 00:39:20;;;;;;;3.53;0.80;;;6.60;99.90;;;;;;4995524;28;20246;-72
2022/02/23 00:41:46;;;;;;;0.93;0.83;;;6.60;99.90;;;;;;5013175;28;20411;-71
2022/02/23 00:44:11;;;;;;;2.50;0.87;;;6.30;99.90;;;;;;5013167;28;20510;-72
2022/02/23 00:46:37;;;;;;;1.20;1.10;;;6.00;99.90;;;;;;5013332;28;20196;-72
2022/02/23 00:49:02;;;;;;;0.93;0.93;;;5.70;99.90;;;;;;5012888;28;20177;-72
2022/02/23 00:51:28;;;;;;;1.10;0.90;;;5.50;99.90;;;;;;5013405;28;20684;-73
2022/02/23 00:53:53;;;;;;;1.30;0.93;;;5.40;99.90;;;;;;5012342;28;20191;-71
2022/02/23 00:56:19;;;;;;;0.63;0.63;;;5.40;99.90;;;;;;5013000;28;20168;-72
2022/02/23 00:58:44;;;;;;;2.30;0.97;;;5.40;99.90;;;;;;5015480;28;20168;-71
2022/02/23 01:01:10;;;;;;;0.90;0.90;;;5.40;99.90;;;;;;5015474;28;20179;-72
2022/02/23 01:03:35;;;;;;;4.30;0.77;;;5.30;99.90;;;;;;5015079;28;20266;-72
2022/02/23 01:06:01;;;;;;;1.77;1.67;;;5.30;99.90;;;;;;5015385;28;20529;-72
2022/02/23 01:08:26;;;;;;;2.60;1.33;;;5.20;99.90;;;;;;5015523;28;20255;-71
2022/02/23 01:10:52;;;;;;;1.23;0.80;;;5.20;99.90;;;;;;5015579;28;20710;-72
2022/02/23 01:13:18;;;;;;;1.10;0.83;;;5.20;99.90;;;;;;5015213;28;20192;-71
2022/02/23 01:15:44;;;;;;;1.20;1.10;;;5.20;99.90;;;;;;5015390;28;20172;-72
2022/02/23 01:18:09;;;;;;;1.17;0.87;;;5.20;99.90;;;;;;5015240;28;20753;-71
2022/02/23 01:20:35;;;;;;;0.90;0.70;;;5.20;99.90;;;;;;5015618;28;20177;-70
2022/02/23 01:23:00;;;;;;;1.03;0.80;;;5.10;99.90;;;;;;5015076;28;20192;-72
2022/02/23 01:25:28;;;;;;;3.40;1.30;;;5.10;99.90;;;;;;5015218;28;20172;-72
2022/02/23 01:27:53;;;;;;;2.50;1.27;;;5.00;99.90;;;;;;5015175;28;20189;-74
2022/02/23 01:30:19;;;;;;;3.60;1.03;;;5.10;99.90;;;;;;5014854;28;20838;-72
2022/02/23 01:32:44;;;;;;;0.90;0.80;;;5.00;99.90;;;;;;5014738;28;20169;-71
2022/02/23 01:35:11;;;;;;;1.37;1.27;;;5.00;99.90;;;;;;5015315;28;20184;-71
2022/02/23 01:37:36;;;;;;;1.60;1.30;;;5.00;99.90;;;;;;5015101;28;20168;-71
2022/02/23 01:40:03;;;;;;;1.80;1.10;;;5.10;99.90;;;;;;4997267;28;20426;-71
2022/02/23 01:42:28;;;;;;;4.73;1.47;;;5.10;99.90;;;;;;5014527;28;20176;-71
2022/02/23 01:44:54;;;;;;;0.90;0.90;;;5.30;99.90;;;;;;5015291;28;20773;-72
2022/02/23 01:47:19;;;;;;;2.30;1.00;;;5.40;99.90;;;;;;5016066;28;20259;-71
2022/02/23 01:49:45;;;;;;;6.83;1.37;;;5.40;99.90;;;;;;5016212;28;20172;-72
2022/02/23 01:52:10;;;;;;;2.43;1.07;;;5.50;99.90;;;;;;5016554;28;20734;-72
2022/02/23 01:54:36;;;;;;;3.33;1.43;;;5.50;99.90;;;;;;5015084;28;20188;-72
2022/02/23 01:57:01;;;;;;;7.50;2.07;;;5.60;99.90;;;;;;5014812;28;20189;-73
2022/02/23 01:59:27;;;;;;;13.23;3.07;;;5.60;99.90;;;;;;5014868;28;20168;-73
2022/02/23 02:01:52;;;;;;;6.10;1.60;;;5.60;99.90;;;;;;5014848;28;20179;-73
2022/02/23 02:04:21;;;;;;;1.00;0.83;;;5.60;99.90;;;;;;5015128;28;20200;-70
2022/02/23 02:06:48;;;;;;;4.77;1.43;;;5.60;99.90;;;;;;5015232;28;20183;-72
2022/02/23 02:09:14;;;;;;;13.40;3.00;;;5.70;99.90;;;;;;5014560;28;20408;-70
2022/02/23 02:11:39;;;;;;;0.90;0.90;;;5.80;99.90;;;;;;5014037;28;20463;-71
2022/02/23 02:14:05;;;;;;;2.87;1.53;;;5.80;99.90;;;;;;5013570;28;20587;-71
2022/02/23 02:16:31;;;;;;;4.50;1.80;;;5.80;99.90;;;;;;5013880;28;20179;-72
2022/02/23 02:18:57;;;;;;;2.83;0.93;;;5.80;99.90;;;;;;5013592;28;20462;-71
2022/02/23 02:21:23;;;;;;;4.43;1.60;;;5.80;99.90;;;;;;5013655;28;20168;-71
2022/02/23 02:23:50;;;;;;;2.00;1.23;;;5.90;99.90;;;;;;5013472;28;20798;-72
2022/02/23 02:26:15;;;;;;;2.50;1.07;;;5.80;99.90;;;;;;5012139;28;20172;-72
2022/02/23 02:28:41;;;;;;;5.70;1.40;;;5.80;99.90;;;;;;5013433;28;20749;-72
2022/02/23 02:31:06;;;;;;;3.53;1.27;;;5.70;99.90;;;;;;5013628;28;20231;-71
2022/02/23 02:33:32;;;;;;;1.80;1.20;;;5.80;99.90;;;;;;5013262;28;20211;-72
2022/02/23 02:35:57;;;;;;;3.07;1.60;;;5.80;99.90;;;;;;5013258;28;20178;-72
2022/02/23 02:38:22;;;;;;;3.00;1.40;;;5.70;99.90;;;;;;5013500;28;20268;-72
2022/02/23 02:40:48;;;;;;;3.70;2.50;;;5.70;99.90;;;;;;5013349;28;20183;-72
2022/02/23 02:43:13;;;;;;;6.00;1.80;;;5.70;99.90;;;;;;5013031;28;20202;-72
2022/02/23 02:45:39;;;;;;;4.83;1.07;;;5.70;99.90;;;;;;5012975;28;20535;-72
2022/02/23 02:48:04;;;;;;;2.50;1.60;;;5.70;99.90;;;;;;4995486;28;20191;-72
2022/02/23 02:50:30;;;;;;;2.37;1.70;;;5.60;99.90;;;;;;5013094;28;20204;-72
2022/02/23 02:52:57;;;;;;;2.83;0.90;;;5.60;99.90;;;;;;5012998;28;20194;-72
2022/02/23 02:55:24;;;;;;;5.90;1.67;;;5.60;99.90;;;;;;5012839;28;20315;-73
2022/02/23 02:57:50;;;;;;;1.20;1.10;;;5.60;99.90;;;;;;5013255;28;20470;-72
2022/02/23 03:00:16;;;;;;;1.93;1.53;;;5.60;99.90;;;;;;5013410;28;20411;-73
2022/02/23 03:02:42;;;;;;;14.60;1.87;;;5.50;99.90;;;;;;5012733;28;20247;-71
2022/02/23 03:05:07;;;;;;;2.30;1.43;;;5.50;99.90;;;;;;5012941;28;21066;-71
2022/02/23 03:07:33;;;;;;;1.10;0.97;;;5.40;99.90;;;;;;5012838;28;20173;-71
2022/02/23 03:09:58;;;;;;;1.77;1.23;;;5.40;99.90;;;;;;5012688;28;20191;-72
2022/02/23 03:12:24;;;;;;;2.43;1.60;;;5.40;99.90;;;;;;5012816;28;20619;-72
2022/02/23 03:14:50;;;;;;;1.13;1.03;;;5.40;99.90;;;;;;5012841;28;20195;-72
2022/02/23 03:17:15;;;;;;;0.80;0.80;;;5.40;99.90;;;;;;5013398;28;20600;-73
2022/02/23 03:19:40;;;;;;;4.43;1.60;;;5.40;99.90;;;;;;5014253;28;20169;-72
2022/02/23 03:22:06;;;;;;;1.73;1.03;;;5.40;99.90;;;;;;5017987;28;20203;-73
2022/02/23 03:24:32;;;;;;;1.70;0.97;;;5.40;99.90;;;;;;5016838;28;20188;-73
2022/02/23 03:26:57;;;;;;;1.37;1.27;;;5.50;99.90;;;;;;5016814;28;20177;-72
2022/02/23 03:29:23;;;;;;;4.80;1.13;;;5.60;99.90;;;;;;5016538;28;20180;-72
2022/02/23 03:31:48;;;;;;;3.33;1.83;;;5.60;99.90;;;;;;5012535;28;20204;-72
2022/02/23 03:34:13;;;;;;;1.50;1.40;;;5.60;99.90;;;;;;5012328;28;20270;-72
2022/02/23 03:36:39;;;;;;;1.37;1.27;;;5.50;99.90;;;;;;5012493;28;20176;-72
2022/02/23 03:39:05;;;;;;;4.40;1.20;;;5.60;99.90;;;;;;5012296;28;20168;-72
2022/02/23 03:41:30;;;;;;;3.70;1.20;;;5.60;99.90;;;;;;5012463;28;20180;-73
2022/02/23 03:43:56;;;;;;;1.10;1.00;;;5.50;99.90;;;;;;5012164;28;20474;-72
2022/02/23 03:46:21;;;;;;;0.80;0.80;;;5.50;99.90;;;;;;5012480;28;20168;-72
2022/02/23 03:48:47;;;;;;;3.37;1.90;;;5.60;99.90;;;;;;4994725;28;20194;-72
2022/02/23 03:51:13;;;;;;;2.00;1.27;;;5.60;99.90;;;;;;5012436;28;20195;-72
2022/02/23 03:53:39;;;;;;;3.43;0.80;;;5.60;99.90;;;;;;5012546;28;20184;-72
2022/02/23 03:56:38;;;;;;;2.50;2.30;;;5.60;99.90;;;;;;5013443;28;20258;-72
2022/02/23 03:58:50;;;;;;;5.97;1.07;;;5.60;99.90;;;;;;5012158;28;20418;-72
2022/02/23 04:01:15;;;;;;;2.70;1.23;;;5.60;99.90;;;;;;5012188;28;20411;-72
2022/02/23 04:03:41;;;;;;;1.77;1.67;;;5.60;99.90;;;;;;5013501;28;20250;-73
2022/02/23 04:06:06;;;;;;;5.27;1.17;;;5.50;99.90;;;;;;5012944;28;20188;-73
2022/02/23 04:08:32;;;;;;;0.80;0.80;;;5.50;99.90;;;;;;5013234;28;20570;-73
2022/02/23 04:10:57;;;;;;;1.43;1.10;;;5.50;99.90;;;;;;5012457;28;20208;-73
2022/02/23 04:13:22;;;;;;;1.60;1.17;;;5.50;99.90;;;;;;5011920;28;20191;-72
2022/02/23 04:15:48;;;;;;;5.57;2.07;;;5.30;99.90;;;;;;5011821;28;20295;-72
2022/02/23 04:18:13;;;;;;;1.00;0.90;;;5.30;99.90;;;;;;5011801;28;20168;-72
2022/02/23 04:20:39;;;;;;;3.53;1.43;;;5.20;99.90;;;;;;5011698;28;20205;-72
2022/02/23 04:23:04;;;;;;;0.80;0.80;;;5.20;99.90;;;;;;5011548;28;20196;-71
2022/02/23 04:25:30;;;;;;;5.50;1.20;;;5.10;99.90;;;;;;5011677;28;20230;-72
2022/02/23 04:27:56;;;;;;;1.57;1.47;;;5.00;99.90;;;;;;5011704;28;20204;-72
2022/02/23 04:30:21;;;;;;;5.50;1.00;;;5.00;99.90;;;;;;5011710;28;20207;-72
2022/02/23 04:32:47;;;;;;;1.10;1.00;;;4.90;99.90;;;;;;5015098;28;20173;-73
2022/02/23 04:35:12;;;;;;;3.23;1.53;;;4.90;99.90;;;;;;5015653;28;20226;-73
2022/02/23 04:37:38;;;;;;;1.30;0.90;;;4.80;99.90;;;;;;5015495;28;20168;-73
2022/02/23 04:40:05;;;;;;;0.87;0.87;;;4.70;99.90;;;;;;5015529;28;20194;-73
2022/02/23 04:42:30;;;;;;;1.17;1.10;;;4.70;99.90;;;;;;5015308;28;20196;-73
2022/02/23 04:45:00;;;;;;;2.20;0.80;;;4.70;99.90;;;;;;5015382;28;20581;-73
2022/02/23 04:47:27;;;;;;;4.30;1.20;;;4.60;99.90;;;;;;5015522;28;20653;-72
2022/02/23 04:49:52;;;;;;;1.63;1.53;;;4.60;99.90;;;;;;5015158;28;20494;-71
2022/02/23 04:52:18;;;;;;;1.67;1.30;;;4.60;99.90;;;;;;5015610;28;20414;-72
2022/02/23 04:54:43;;;;;;;1.50;1.40;;;4.70;99.90;;;;;;5015293;28;20195;-72
2022/02/23 04:57:09;;;;;;;3.87;1.40;;;4.80;99.90;;;;;;5015204;28;20161;-72
2022/02/23 04:59:34;;;;;;;1.67;1.47;;;4.80;99.90;;;;;;5015332;28;20191;-72
2022/02/23 05:02:00;;;;;;;4.70;1.60;;;4.80;99.90;;;;;;5015158;28;20639;-72
2022/02/23 05:04:27;;;;;;;3.20;2.00;;;4.70;99.90;;;;;;5014894;28;20558;-73
2022/02/23 05:06:52;;;;;;;3.13;2.40;;;4.70;99.90;;;;;;5015285;28;20682;-73
2022/02/23 05:09:18;;;;;;;9.40;2.10;;;4.70;99.90;;;;;;5015148;28;20503;-73
2022/02/23 05:11:43;;;;;;;2.60;1.50;;;4.70;99.90;;;;;;5014875;28;20204;-73
2022/02/23 05:14:09;;;;;;;1.80;1.50;;;4.70;99.90;;;;;;5014865;28;20192;-73
2022/02/23 05:16:34;;;;;;;2.83;2.63;;;4.70;99.90;;;;;;5014830;28;20172;-73
2022/02/23 05:19:00;;;;;;;1.40;1.30;;;4.80;99.90;;;;;;5014912;28;20168;-73
2022/02/23 05:21:25;;;;;;;1.70;1.40;;;4.80;99.90;;;;;;5015027;28;20251;-73
2022/02/23 05:23:51;;;;;;;4.50;1.27;;;4.80;99.90;;;;;;5015406;28;20199;-73
2022/02/23 05:26:16;;;;;;;2.07;1.63;;;4.80;99.90;;;;;;5015461;28;20179;-73
2022/02/23 05:28:42;;;;;;;2.17;1.97;;;5.00;99.90;;;;;;5014899;28;20200;-71
2022/02/23 05:31:07;;;;;;;8.83;1.17;;;5.00;99.90;;;;;;5014578;28;20699;-72
2022/02/23 05:33:33;;;;;;;3.33;1.57;;;5.00;99.90;;;;;;5014440;28;20208;-72
2022/02/23 05:36:00;;;;;;;4.77;1.40;;;4.90;99.90;;;;;;4996814;28;20172;-73
2022/02/23 05:38:26;;;;;;;4.63;1.50;;;4.90;99.90;;;;;;5014811;28;20234;-72
2022/02/23 05:40:52;;;;;;;2.40;1.33;;;5.00;99.90;;;;;;5014631;28;20902;-73
2022/02/23 05:43:17;;;;;;;3.27;1.63;;;5.00;99.90;;;;;;5014946;28;20842;-73
2022/02/23 05:45:43;;;;;;;2.20;1.00;;;5.00;99.90;;;;;;5015256;28;20172;-73
2022/02/23 05:48:08;;;;;;;4.50;1.70;;;5.00;99.90;;;;;;5014207;28;20662;-73
2022/02/23 05:50:33;;;;;;;1.70;1.60;;;5.00;99.90;;;;;;5014351;28;20204;-73
2022/02/23 05:52:59;;;;;;;2.00;1.23;;;5.00;99.90;;;;;;5014089;28;20209;-73
2022/02/23 05:55:25;;;;;;;3.77;1.33;;;4.90;99.90;;;;;;5014270;28;20160;-73
2022/02/23 05:57:51;;;;;;;4.53;1.67;;;4.90;99.90;;;;;;5014194;28;20660;-73
2022/02/23 06:00:16;;;;;;;1.63;1.03;;;4.90;99.90;;;;;;5014067;28;20407;-72
2022/02/23 06:02:42;;;;;;;4.37;2.80;;;5.00;99.90;;;;;;5013646;28;20548;-72
2022/02/23 06:05:08;;;;;;;3.73;1.90;;;4.90;99.90;;;;;;5013776;28;20202;-73
2022/02/23 06:07:34;;;;;;;4.53;1.63;;;5.00;99.90;;;;;;5014115;28;20172;-73
2022/02/23 06:10:00;;;;;;;1.23;1.13;;;5.10;99.90;;;;;;5013946;28;20439;-72
2022/02/23 06:12:25;;;;;;;2.93;1.53;;;5.10;99.90;;;;;;5013937;28;20407;-72
2022/02/23 06:14:51;;;;;;;2.30;1.57;;;5.00;99.90;;;;;;5013782;28;20227;-72
2022/02/23 06:17:16;;;;;;;3.37;1.53;;;5.00;99.90;;;;;;5013783;28;20199;-72
2022/02/23 06:19:42;;;;;;;5.30;1.50;;;5.10;99.90;;;;;;5013869;28;20176;-72
2022/02/23 06:22:07;;;;;;;3.30;2.27;;;5.10;99.90;;;;;;5013562;28;20176;-72
2022/02/23 06:24:32;;;;;;;5.30;1.77;;;5.20;99.90;;;;;;5013936;28;20188;-72
2022/02/23 06:26:58;;;;;;;2.33;1.30;;;5.30;99.90;;;;;;5013715;28;20176;-72
2022/02/23 06:29:24;;;;;;;16.13;2.73;;;5.20;99.90;;;;;;5012118;28;20694;-72
2022/02/23 06:32:06;;;;;;;4.50;1.60;;;5.20;99.90;;;;;;5012484;28;20671;-72
2022/02/23 06:34:31;;;;;;;6.30;1.60;;;5.20;99.90;;;;;;5031387;22;20220;-69
2022/02/23 06:37:02;;;;;;;1.47;1.20;;;5.30;99.90;;;;;;4993319;28;20405;-69
2022/02/23 06:39:31;;;;;;;11.90;2.50;;;5.30;99.90;;;;;;4993580;28;20553;-68
2022/02/23 06:41:57;;;;;;;3.47;2.20;;;5.40;99.90;;;;;;4993532;28;20422;-70
2022/02/23 06:44:23;;;;;;;16.63;2.93;;;5.40;99.90;;;;;;4993338;28;20442;-68
2022/02/23 06:46:49;;;;;;;6.13;1.87;;;5.40;99.90;;;;;;4993430;28;20416;-69
2022/02/23 06:49:15;;;;;;;6.93;1.93;;;5.40;99.90;;;;;;4993782;28;20455;-70
2022/02/23 06:51:42;;;;;;;6.47;1.70;;;5.40;99.90;;;;;;4993217;28;20212;-68
2022/02/23 06:54:08;;;;;;;6.97;1.60;;;5.50;99.90;;;;;;4992899;28;20404;-68
2022/02/23 06:56:34;;;;;;;2.50;1.93;;;5.50;99.90;;;;;;4976162;28;20411;-68
2022/02/23 06:59:02;;;;;;;3.30;1.50;;;5.60;99.90;;;;;;4993565;28;20168;-68
2022/02/23 07:01:27;;;;;;;5.60;2.83;;;5.60;99.90;;;;;;4993223;28;20231;-68
2022/02/23 07:03:53;;;;;;;4.90;1.10;;;5.60;99.90;;;;;;4993027;28;20915;-68
2022/02/23 07:06:19;;;;;;;5.03;2.13;;;5.60;99.90;;;;;;4993215;28;20644;-68
2022/02/23 07:08:50;;;;;;;11.30;2.90;;;5.70;99.90;;;;;;4992846;28;20420;-68
2022/02/23 07:11:17;;;;;;;2.20;2.00;;;5.70;99.90;;;;;;4993260;28;20627;-68
2022/02/23 07:13:43;;;;;;;5.30;1.77;;;5.70;99.90;;;;;;4993238;28;20794;-68
2022/02/23 07:16:12;;;;;;;4.30;1.73;;;5.70;99.90;;;;;;4993314;28;20563;-68
2022/02/23 07:18:38;;;;;;;2.00;1.67;;;5.70;99.90;;;;;;4993282;28;20407;-68
2022/02/23 07:21:03;;;;;;;10.60;2.10;;;5.90;99.90;;;;;;4992924;28;20412;-68
2022/02/23 07:23:29;;;;;;;3.07;1.40;;;6.20;99.90;;;;;;4992878;28;20173;-68
2022/02/23 07:25:54;;;;;;;8.53;2.00;;;6.40;99.90;;;;;;4992529;28;20598;-68
2022/02/23 07:28:20;;;;;;;3.87;1.87;;;6.20;99.90;;;;;;4992590;28;20180;-68
2022/02/23 07:30:46;;;;;;;4.60;1.73;;;6.30;99.90;;;;;;4992658;28;20236;-68
2022/02/23 07:33:13;;;;;;;3.50;2.00;;;6.90;99.90;;;;;;4991693;28;20702;-67
2022/02/23 07:35:38;;;;;;;4.63;1.80;;;6.80;99.90;;;;;;4991955;28;20459;-68
2022/02/23 07:38:07;;;;;;;3.97;1.30;;;6.60;99.90;;;;;;4992285;28;20953;-68
2022/02/23 07:40:32;;;;;;;3.87;1.40;;;6.60;99.90;;;;;;4992360;28;20264;-68
2022/02/23 07:43:00;;;;;;;4.67;1.57;;;6.60;99.90;;;;;;4992383;28;20440;-68
2022/02/23 07:45:28;;;;;;;1.50;1.40;;;6.80;99.90;;;;;;4992479;28;20193;-67
2022/02/23 07:47:54;;;;;;;2.40;0.93;;;6.60;99.90;;;;;;4992580;28;20408;-67
2022/02/23 07:50:19;;;;;;;3.27;1.90;;;6.60;99.90;;;;;;4992428;28;20451;-67
2022/02/23 07:52:47;;;;;;;5.73;1.70;;;6.80;99.90;;;;;;4992283;28;20624;-68
2022/02/23 07:55:12;;;;;;;3.70;2.40;;;7.40;99.90;;;;;;4992210;28;20203;-68
2022/02/23 07:57:38;;;;;;;3.83;2.10;;;7.20;99.90;;;;;;4992344;28;20895;-65
2022/02/23 08:00:05;;;;;;;3.33;1.83;;;7.70;99.90;;;;;;4992422;28;20172;-67
2022/02/23 08:02:34;;;;;;;1.27;1.17;;;7.30;99.90;;;;;;4991876;28;20182;-67
2022/02/23 08:04:59;;;;;;;4.30;1.83;;;7.10;99.90;;;;;;4992041;28;20821;-68
2022/02/23 08:07:25;;;;;;;2.93;1.40;;;7.40;99.90;;;;;;4992041;28;20409;-66
2022/02/23 08:09:50;;;;;;;3.30;1.30;;;7.30;99.90;;;;;;4991989;28;20181;-68
2022/02/23 08:12:16;;;;;;;4.83;1.53;;;7.20;99.90;;;;;;4991886;28;20256;-68
2022/02/23 08:14:42;;;;;;;2.47;1.70;;;7.20;99.90;;;;;;4991913;28;20333;-65
2022/02/23 08:19:52;;;;;;;3.17;1.97;;;7.30;99.90;;;;;;4992370;28;20216;-67
2022/02/23 08:22:18;;;;;;;6.80;1.70;;;7.10;99.90;;;;;;4992234;28;20432;-67
2022/02/23 08:24:46;;;;;;;13.93;2.17;;;7.20;99.90;;;;;;4991893;28;20467;-66
2022/02/23 08:27:15;;;;;;;3.93;1.53;;;7.20;99.90;;;;;;4992403;28;20408;-66
2022/02/23 08:29:41;;;;;;;10.20;1.63;;;7.30;99.90;;;;;;4991989;28;20431;-66
2022/02/23 08:32:08;;;;;;;2.20;2.00;;;7.70;99.90;;;;;;4992037;28;20507;-67
2022/02/23 08:34:34;;;;;;;3.77;1.03;;;7.70;99.90;;;;;;4972787;28;20289;-66
2022/02/23 08:37:01;;;;;;;5.40;1.70;;;7.80;99.90;;;;;;4973081;28;20413;-67
2022/02/23 08:39:27;;;;;;;11.00;1.53;;;7.50;99.90;;;;;;4988612;28;20909;-66
2022/02/23 08:41:53;;;;;;;4.77;1.63;;;8.10;99.90;;;;;;4992041;28;20411;-66
2022/02/23 08:44:19;;;;;;;3.40;1.20;;;8.20;99.90;;;;;;4991315;28;20748;-68
2022/02/23 08:46:44;;;;;;;3.83;1.17;;;8.30;99.90;;;;;;4991821;28;20177;-68
2022/02/23 08:49:11;;;;;;;4.60;1.20;;;7.80;99.90;;;;;;4991745;28;20173;-66
2022/02/23 08:51:39;;;;;;;1.33;1.17;;;8.10;99.90;;;;;;4991590;28;20198;-69
2022/02/23 08:54:05;;;;;;;0.97;0.70;;;8.70;99.90;;;;;;4991706;28;20797;-66
2022/02/23 08:56:31;;;;;;;2.53;1.37;;;8.90;99.90;;;;;;4991852;28;20522;-66
2022/02/23 08:58:57;;;;;;;3.23;1.90;;;8.80;99.90;;;;;;4991620;28;20783;-67
2022/02/23 09:01:25;;;;;;;2.97;1.50;;;8.30;99.90;;;;;;4991668;28;20918;-67
2022/02/23 09:03:51;;;;;;;3.30;1.00;;;9.00;99.90;;;;;;4991432;28;20592;-67
2022/02/23 09:06:18;;;;;;;4.43;1.70;;;9.40;99.90;;;;;;4992047;28;20518;-67
2022/02/23 09:08:43;;;;;;;2.53;1.03;;;9.10;99.90;;;;;;4991680;28;20419;-67
2022/02/23 09:11:11;;;;;;;3.90;1.00;;;9.00;99.90;;;;;;4991787;28;20460;-67
2022/02/23 09:13:36;;;;;;;1.47;0.90;;;9.20;99.90;;;;;;4991769;28;20188;-68
2022/02/23 09:16:01;;;;;;;4.97;1.27;;;9.30;99.90;;;;;;4991459;28;20490;-68
2022/02/23 09:18:27;;;;;;;4.17;1.30;;;8.50;99.90;;;;;;4986390;28;20185;-68
2022/02/23 09:20:52;;;;;;;1.43;1.27;;;8.10;99.90;;;;;;4995185;28;20808;-68
2022/02/23 09:23:19;;;;;;;1.03;0.97;;;8.40;99.90;;;;;;4995220;28;20171;-68
2022/02/23 09:25:45;;;;;;;4.80;1.80;;;9.70;99.90;;;;;;4995009;28;20197;-68
2022/02/23 09:28:11;;;;;;;2.30;1.07;;;9.70;99.90;;;;;;4994984;28;20414;-69
2022/02/23 09:30:37;;;;;;;6.47;1.33;;;10.00;99.90;;;;;;4994951;28;20479;-69
2022/02/23 09:33:03;;;;;;;2.43;1.47;;;9.80;99.90;;;;;;4994925;28;20423;-69
2022/02/23 09:35:28;;;;;;;4.23;1.20;;;9.90;99.90;;;;;;4994324;28;20616;-68
2022/02/23 09:37:56;;;;;;;1.90;1.67;;;9.30;99.90;;;;;;4994834;28;20173;-67
2022/02/23 09:40:21;;;;;;;1.70;1.13;;;8.90;99.90;;;;;;4995080;28;20207;-67
2022/02/23 09:42:47;;;;;;;2.10;1.30;;;8.70;99.90;;;;;;4994545;28;20915;-68
2022/02/23 09:45:13;;;;;;;1.80;0.93;;;8.80;99.90;;;;;;4994628;28;20216;-68
2022/02/23 09:47:40;;;;;;;5.63;1.50;;;9.40;99.90;;;;;;4994655;28;20201;-68
2022/02/23 09:50:11;;;;;;;3.30;1.53;;;9.10;99.90;;;;;;4994648;28;20522;-68
2022/02/23 09:52:37;;;;;;;4.17;1.70;;;9.10;99.90;;;;;;4994407;28;20945;-68
2022/02/23 09:55:05;;;;;;;5.80;1.90;;;8.50;99.90;;;;;;4994533;28;20516;-68
2022/02/23 09:57:30;;;;;;;3.37;1.33;;;8.50;99.90;;;;;;4994275;28;20671;-68
2022/02/23 09:59:57;;;;;;;3.80;1.20;;;8.20;99.90;;;;;;4994656;28;20447;-68
2022/02/23 10:02:23;;;;;;;3.57;0.90;;;8.10;99.90;;;;;;4994714;28;20173;-68
2022/02/23 10:04:51;;;;;;;3.07;1.07;;;8.10;99.90;;;;;;4994659;28;20435;-68
2022/02/23 10:07:30;;;;;;;2.10;1.40;;;8.20;99.90;;;;;;4994537;28;20415;-68
2022/02/23 10:09:57;;;;;;;7.60;1.63;;;8.40;99.90;;;;;;4994730;28;20502;-68
2022/02/23 10:12:26;;;;;;;7.57;1.10;;;8.20;99.90;;;;;;4994229;28;20413;-68
2022/02/23 10:15:04;;;;;;;2.90;1.43;;;8.30;99.90;;;;;;4993713;28;20866;-67
2022/02/23 10:17:43;;;;;;;1.43;1.03;;;8.20;99.90;;;;;;4993994;28;20886;-67
2022/02/23 10:20:31;;;;;;;1.23;1.00;;;8.30;99.90;;;;;;4994145;28;20491;-67
2022/02/23 10:23:18;;;;;;;10.33;1.70;;;8.30;99.90;;;;;;4976304;28;20469;-67
2022/02/23 10:25:53;;;;;;;2.47;1.17;;;8.20;99.90;;;;;;4993887;28;20448;-67
2022/02/23 10:28:22;;;;;;;1.73;1.27;;;8.60;99.90;;;;;;4993174;28;20399;-68
2022/02/23 10:30:54;;;;;;;1.73;1.27;;;8.50;99.90;;;;;;4993220;28;20983;-67
2022/02/23 10:33:32;;;;;;;2.77;1.50;;;8.50;99.90;;;;;;4993422;28;20421;-67
2022/02/23 10:36:01;;;;;;;4.10;1.50;;;8.60;99.90;;;;;;4993238;28;20513;-67
2022/02/23 10:38:33;;;;;;;0.70;0.70;;;8.40;99.90;;;;;;4993531;28;20411;-67
2022/02/23 10:41:00;;;;;;;1.47;1.20;;;8.50;99.90;;;;;;4993444;28;20420;-67
2022/02/23 10:43:36;;;;;;;5.20;1.20;;;8.60;99.90;;;;;;4993383;28;20450;-67
2022/02/23 10:46:09;;;;;;;1.67;1.57;;;8.90;99.90;;;;;;4993265;28;20435;-67
2022/02/23 10:48:42;;;;;;;4.03;1.33;;;8.50;99.90;;;;;;4994123;28;20417;-67
2022/02/23 10:51:11;;;;;;;0.80;0.80;;;8.50;99.90;;;;;;4993757;28;20447;-67
2022/02/23 10:53:38;;;;;;;10.37;1.10;;;8.30;99.90;;;;;;4985417;28;20412;-67
2022/02/23 10:56:25;;;;;;;5.00;1.37;;;8.50;99.90;;;;;;4975550;28;20475;-67
2022/02/23 10:59:11;;;;;;;3.23;1.07;;;8.40;99.90;;;;;;4993368;28;20480;-67
2022/02/23 11:01:39;;;;;;;5.60;1.40;;;8.50;99.90;;;;;;4993406;28;20400;-67
2022/02/23 11:04:06;;;;;;;6.10;1.10;;;8.40;99.90;;;;;;4992970;28;20470;-67
2022/02/23 11:06:33;;;;;;;2.50;1.77;;;8.40;99.90;;;;;;4992984;28;20415;-67
2022/02/23 11:08:59;;;;;;;0.90;0.70;;;8.40;99.90;;;;;;4993636;28;20922;-67
2022/02/23 11:11:26;;;;;;;2.30;1.07;;;8.60;99.90;;;;;;4993119;28;20456;-67
2022/02/23 11:13:52;;;;;;;2.10;1.33;;;8.60;99.90;;;;;;4976128;28;20436;-67
2022/02/23 11:16:19;;;;;;;1.80;0.90;;;8.50;99.90;;;;;;4994375;28;20478;-67
2022/02/23 11:18:47;;;;;;;3.33;0.97;;;8.60;99.90;;;;;;4993641;28;20946;-67
2022/02/23 11:21:15;;;;;;;8.10;1.40;;;8.60;99.90;;;;;;4994036;28;21000;-67
2022/02/23 11:23:42;;;;;;;1.67;1.13;;;8.60;99.90;;;;;;4993299;28;20412;-67
2022/02/23 11:26:09;;;;;;;3.43;1.20;;;8.50;99.90;;;;;;4993813;28;20527;-67
2022/02/23 11:28:44;;;;;;;2.70;1.17;;;8.60;99.90;;;;;;4993757;28;20540;-67
2022/02/23 11:31:11;;;;;;;2.00;1.33;;;8.70;99.90;;;;;;4993555;28;20458;-67
2022/02/23 11:33:59;;;;;;;2.63;1.07;;;8.80;99.90;;;;;;5005747;28;20787;-66
2022/02/23 11:36:34;;;;;;;2.87;1.30;;;9.00;99.90;;;;;;4993242;28;20523;-67
2022/02/23 11:39:17;;;;;;;3.07;1.30;;;8.80;99.90;;;;;;4993780;28;20407;-67
2022/02/23 11:42:07;;;;;;;2.40;1.73;;;8.60;99.90;;;;;;4976716;28;20793;-67
2022/02/23 11:44:37;;;;;;;1.83;1.00;;;8.30;99.90;;;;;;4993179;28;20853;-67
2022/02/23 11:47:40;;;;;;;5.60;1.63;;;8.50;99.90;;;;;;4993320;28;20424;-67
2022/02/23 11:50:24;;;;;;;2.53;1.20;;;8.70;99.90;;;;;;4993353;28;20439;-67
2022/02/23 11:55:41;;;;;;;1.20;1.00;;;9.10;99.90;;;;;;4993499;28;20548;-67
2022/02/23 11:58:26;;;;;;;2.40;1.23;;;9.20;99.90;;;;;;4993560;28;20795;-67
2022/02/23 12:00:59;;;;;;;3.97;1.07;;;9.00;99.90;;;;;;4974149;28;20460;-67
2022/02/23 12:03:28;;;;;;;1.83;1.03;;;9.10;99.90;;;;;;4973880;28;20414;-66
2022/02/23 12:06:05;;;;;;;2.00;0.90;;;9.10;99.90;;;;;;4973318;28;20448;-66
2022/02/23 12:08:42;;;;;;;0.80;0.77;;;8.90;99.90;;;;;;4975415;28;20550;-67
2022/02/23 12:14:11;;;;;;;1.90;1.37;;;9.00;99.90;;;;;;4975907;28;20397;-66
2022/02/23 12:16:38;;;;;;;1.20;1.10;;;9.00;99.90;;;;;;4993341;28;20404;-66
2022/02/23 12:19:06;;;;;;;2.13;0.90;;;9.30;99.90;;;;;;4993283;28;20223;-66
2022/02/23 12:21:55;;;;;;;2.30;1.03;;;9.10;99.90;;;;;;4993735;28;20511;-66
2022/02/23 12:24:23;;;;;;;6.93;1.13;;;9.10;99.90;;;;;;4982457;28;20436;-66
2022/02/23 12:26:54;;;;;;;2.13;1.30;;;9.10;99.90;;;;;;4992689;28;20424;-66
2022/02/23 12:29:27;;;;;;;1.20;0.77;;;9.40;99.90;;;;;;4973635;28;20393;-67
2022/02/23 12:31:52;;;;;;;2.63;1.60;;;9.70;99.90;;;;;;4956344;28;20469;-67
2022/02/23 12:34:22;;;;;;;0.90;0.90;;;9.90;99.90;;;;;;5002114;28;20799;-67
2022/02/23 12:36:51;;;;;;;3.87;1.43;;;10.00;99.90;;;;;;4976515;28;20173;-67
2022/02/23 12:39:30;;;;;;;10.00;2.50;;;9.90;99.90;;;;;;4992758;28;20416;-66
2022/02/23 12:42:01;;;;;;;8.13;1.10;;;9.60;99.90;;;;;;4992746;28;20445;-66
2022/02/23 12:44:31;;;;;;;2.17;1.00;;;9.90;99.90;;;;;;4992532;28;20434;-66
2022/02/23 12:46:59;;;;;;;8.70;1.47;;;9.80;99.90;;;;;;4992799;28;20412;-66
2022/02/23 12:49:25;;;;;;;0.70;0.70;;;9.90;99.90;;;;;;4992533;28;20416;-66
2022/02/23 12:51:52;;;;;;;2.63;1.10;;;10.10;99.90;;;;;;4993072;28;20468;-66
2022/02/23 12:54:20;;;;;;;5.20;1.07;;;10.10;99.90;;;;;;4996251;28;20749;-66
2022/02/23 12:56:51;;;;;;;5.03;1.40;;;10.10;99.90;;;;;;4959629;28;20428;-66
2022/02/23 12:59:26;;;;;;;1.10;1.00;;;9.90;99.90;;;;;;4978645;28;20388;-66
2022/02/23 13:01:54;;;;;;;2.30;1.10;;;10.00;99.90;;;;;;4978638;28;20495;-66
2022/02/23 13:04:38;;;;;;;2.17;0.90;;;10.30;99.90;;;;;;4991297;28;20442;-67